createdAt,value
2022-12-03T00:00:34.053Z,3.72
2022-12-03T00:03:00.948Z,5.15
2022-12-03T00:05:27.549Z,3.75
2022-12-03T00:07:54.150Z,4.35
2022-12-03T00:10:20.600Z,4.07
2022-12-03T00:12:47.234Z,4.50
2022-12-03T00:15:13.702Z,4.00
2022-12-03T00:17:40.390Z,4.75
2022-12-03T00:20:08.935Z,4.88
2022-12-03T00:22:35.467Z,4.50
2022-12-03T00:25:01.858Z,4.32
2022-12-03T00:27:28.298Z,4.20
2022-12-03T00:29:54.881Z,4.57
2022-12-03T00:32:21.291Z,5.38
2022-12-03T00:34:47.793Z,5.57
2022-12-03T00:37:14.231Z,5.38
2022-12-03T00:39:40.871Z,5.45
2022-12-03T00:42:07.338Z,4.78
2022-12-03T00:44:33.943Z,5.43
2022-12-03T00:47:00.412Z,5.45
2022-12-03T00:49:27.245Z,5.00
2022-12-03T00:51:53.672Z,4.80
2022-12-03T00:54:20.242Z,5.25
2022-12-03T00:56:46.646Z,5.38
2022-12-03T00:59:13.244Z,5.15
2022-12-03T01:01:39.776Z,5.13
2022-12-03T01:04:07.622Z,6.13
2022-12-03T01:06:34.077Z,5.30
2022-12-03T01:09:00.722Z,5.80
2022-12-03T01:11:39.489Z,5.20
2022-12-03T01:14:06.697Z,5.43
2022-12-03T01:16:33.670Z,6.07
2022-12-03T01:19:00.113Z,6.78
2022-12-03T01:21:26.613Z,6.47
2022-12-03T01:23:53.018Z,6.50
2022-12-03T01:26:19.496Z,6.85
2022-12-03T01:28:45.890Z,8.48
2022-12-03T01:31:31.054Z,6.97
2022-12-03T01:33:57.745Z,8.00
2022-12-03T01:36:24.159Z,7.35
2022-12-03T01:38:50.708Z,7.57
2022-12-03T01:41:18.442Z,8.63
2022-12-03T01:43:46.014Z,8.32
2022-12-03T01:46:16.351Z,7.18
2022-12-03T01:48:43.146Z,7.22
2022-12-03T01:51:09.572Z,8.10
2022-12-03T01:53:35.973Z,7.53
2022-12-03T01:56:02.564Z,7.78
2022-12-03T01:58:29.835Z,7.93
2022-12-03T02:01:06.234Z,7.75
2022-12-03T02:03:32.643Z,8.35
2022-12-03T02:05:59.182Z,7.35
2022-12-03T02:08:28.157Z,7.95
2022-12-03T02:10:55.113Z,7.63
2022-12-03T02:13:21.591Z,7.47
2022-12-03T02:15:48.207Z,8.35
2022-12-03T02:18:14.679Z,8.57
2022-12-03T02:21:09.095Z,7.93
2022-12-03T02:23:43.734Z,8.27
2022-12-03T02:26:10.410Z,8.73
2022-12-03T02:28:38.108Z,7.85
2022-12-03T02:31:05.268Z,8.95
2022-12-03T02:33:32.393Z,8.75
2022-12-03T02:36:03.256Z,8.38
2022-12-03T02:38:33.527Z,7.53
2022-12-03T02:41:04.488Z,8.73
2022-12-03T02:43:31.126Z,8.27
2022-12-03T02:46:01.078Z,7.22
2022-12-03T02:48:31.651Z,7.55
2022-12-03T02:51:01.192Z,7.53
2022-12-03T02:53:33.383Z,8.68
2022-12-03T02:56:01.656Z,8.55
2022-12-03T02:58:31.222Z,8.70
2022-12-03T03:00:58.997Z,8.18
2022-12-03T03:03:27.877Z,8.80
2022-12-03T03:05:56.709Z,8.15
2022-12-03T03:08:25.303Z,7.63
2022-12-03T03:10:52.085Z,8.60
2022-12-03T03:13:20.151Z,7.97
2022-12-03T03:15:47.260Z,7.60
2022-12-03T03:18:15.100Z,7.70
2022-12-03T03:20:42.396Z,8.10
2022-12-03T03:23:11.870Z,6.90
2022-12-03T03:25:43.768Z,8.10
2022-12-03T03:28:11.518Z,7.55
2022-12-03T03:30:40.238Z,7.68
2022-12-03T03:33:07.100Z,7.35
2022-12-03T03:35:33.596Z,8.20
2022-12-03T03:38:00.318Z,9.00
2022-12-03T03:40:27.665Z,7.65
2022-12-03T03:42:55.129Z,6.85
2022-12-03T03:45:27.300Z,8.27
2022-12-03T03:47:57.971Z,8.57
2022-12-03T03:50:25.812Z,7.70
2022-12-03T03:52:53.102Z,6.95
2022-12-03T03:55:20.367Z,7.93
2022-12-03T03:57:48.180Z,8.50
2022-12-03T04:00:15.562Z,7.20
2022-12-03T04:02:42.267Z,7.80
2022-12-03T04:05:16.879Z,6.65
2022-12-03T04:07:43.408Z,7.28
2022-12-03T04:10:29.770Z,7.57
2022-12-03T04:12:56.179Z,7.45
2022-12-03T04:15:23.606Z,6.65
2022-12-03T04:18:10.838Z,7.22
2022-12-03T04:20:38.110Z,7.22
2022-12-03T04:23:04.772Z,7.07
2022-12-03T04:25:50.234Z,6.75
2022-12-03T04:31:21.455Z,6.60
2022-12-03T04:34:06.660Z,7.57
2022-12-03T04:36:33.155Z,7.10
2022-12-03T04:38:59.596Z,6.93
2022-12-03T04:41:26.167Z,7.32
2022-12-03T04:44:11.225Z,7.43
2022-12-03T04:46:37.572Z,7.03
2022-12-03T04:49:04.069Z,7.32
2022-12-03T04:51:30.493Z,7.90
2022-12-03T04:53:56.844Z,7.53
2022-12-03T04:56:23.301Z,7.30
2022-12-03T04:58:49.709Z,7.43
2022-12-03T05:01:16.252Z,7.70
2022-12-03T05:03:42.671Z,7.45
2022-12-03T05:06:09.199Z,7.35
2022-12-03T05:08:35.547Z,7.07
2022-12-03T05:11:02.012Z,6.63
2022-12-03T05:13:28.452Z,6.78
2022-12-03T05:15:55.057Z,7.22
2022-12-03T05:18:21.405Z,6.43
2022-12-03T05:20:53.210Z,7.03
2022-12-03T05:23:20.836Z,6.97
2022-12-03T05:25:47.571Z,7.18
2022-12-03T05:28:14.263Z,6.80
2022-12-03T05:30:41.079Z,6.63
2022-12-03T05:33:07.590Z,7.03
2022-12-03T05:35:34.138Z,6.18
2022-12-03T05:38:00.593Z,6.57
2022-12-03T05:40:28.423Z,6.05
2022-12-03T05:42:54.893Z,6.20
2022-12-03T05:45:26.066Z,6.03
2022-12-03T05:47:53.828Z,7.05
2022-12-03T05:50:22.144Z,6.70
2022-12-03T05:52:48.746Z,6.85
2022-12-03T05:55:15.635Z,6.78
2022-12-03T05:57:42.229Z,5.57
2022-12-03T06:00:14.409Z,5.60
2022-12-03T06:02:41.095Z,6.00
2022-12-03T06:05:09.597Z,6.20
2022-12-03T06:07:36.087Z,6.28
2022-12-03T06:10:04.008Z,6.03
2022-12-03T06:12:30.647Z,6.47
2022-12-03T06:14:57.128Z,6.22
2022-12-03T06:17:23.673Z,5.90
2022-12-03T06:19:50.022Z,6.20
2022-12-03T06:22:16.491Z,6.18
2022-12-03T06:24:42.882Z,6.15
2022-12-03T06:27:09.384Z,6.55
2022-12-03T06:29:35.935Z,5.95
2022-12-03T06:32:03.184Z,6.40
2022-12-03T06:34:29.676Z,5.72
2022-12-03T06:36:56.464Z,6.45
2022-12-03T06:39:22.994Z,6.72
2022-12-03T06:41:49.491Z,6.32
2022-12-03T06:44:15.916Z,5.50
2022-12-03T06:46:42.555Z,5.80
2022-12-03T06:49:09.403Z,6.35
2022-12-03T06:51:36.746Z,6.75
2022-12-03T06:54:04.183Z,6.25
2022-12-03T06:56:36.880Z,6.95
2022-12-03T07:01:32.141Z,5.80
2022-12-03T07:03:58.531Z,6.07
2022-12-03T07:06:25.136Z,5.75
2022-12-03T07:08:51.601Z,6.13
2022-12-03T07:11:33.267Z,6.13
2022-12-03T07:14:04.958Z,5.93
2022-12-03T07:16:33.281Z,6.65
2022-12-03T07:18:59.732Z,6.60
2022-12-03T07:21:26.294Z,6.18
2022-12-03T07:23:52.728Z,6.15
2022-12-03T07:26:19.251Z,6.55
2022-12-03T07:28:46.646Z,6.88
2022-12-03T07:31:13.276Z,6.07
2022-12-03T07:33:39.940Z,6.75
2022-12-03T07:36:06.802Z,6.00
2022-12-03T07:38:33.214Z,6.13
2022-12-03T07:40:59.703Z,5.75
2022-12-03T07:43:26.056Z,6.03
2022-12-03T07:45:52.560Z,5.53
2022-12-03T07:48:18.939Z,6.53
2022-12-03T07:50:45.492Z,6.80
2022-12-03T07:53:12.030Z,5.50
2022-12-03T07:55:38.439Z,7.10
2022-12-03T07:58:04.914Z,6.47
2022-12-03T08:00:31.587Z,6.90
2022-12-03T08:02:58.162Z,5.93
2022-12-03T08:05:24.569Z,6.13
2022-12-03T08:07:51.142Z,6.97
2022-12-03T08:10:17.779Z,6.25
2022-12-03T08:12:44.461Z,6.20
2022-12-03T08:15:15.379Z,7.82
2022-12-03T08:17:43.446Z,7.32
2022-12-03T08:20:15.469Z,6.57
2022-12-03T08:22:43.621Z,6.93
2022-12-03T08:25:31.782Z,6.60
2022-12-03T08:28:12.210Z,7.15
2022-12-03T08:30:38.963Z,6.20
2022-12-03T08:33:24.575Z,7.43
2022-12-03T08:35:51.202Z,7.55
2022-12-03T08:38:22.186Z,7.40
2022-12-03T08:40:51.113Z,6.75
2022-12-03T08:43:26.850Z,7.45
2022-12-03T08:45:57.556Z,7.43
2022-12-03T08:48:34.406Z,7.82
2022-12-03T08:51:20.984Z,7.68
2022-12-03T08:53:50.142Z,6.97
2022-12-03T08:56:29.168Z,7.65
2022-12-03T08:59:00.601Z,7.18
2022-12-03T09:01:44.048Z,6.68
2022-12-03T09:04:22.454Z,7.40
2022-12-03T09:06:49.843Z,8.13
2022-12-03T09:09:16.275Z,8.73
2022-12-03T09:11:43.405Z,7.05
2022-12-03T09:14:16.733Z,8.27
2022-12-03T09:19:11.678Z,7.85
2022-12-03T09:21:38.059Z,7.78
2022-12-03T09:24:04.775Z,8.07
2022-12-03T09:26:31.155Z,7.82
2022-12-03T09:28:57.737Z,7.35
2022-12-03T09:31:24.306Z,7.50
2022-12-03T09:33:50.910Z,8.57
2022-12-03T09:36:17.305Z,8.48
2022-12-03T09:38:47.643Z,7.10
2022-12-03T09:41:14.704Z,7.32
2022-12-03T09:44:03.239Z,8.50
2022-12-03T09:46:30.004Z,7.65
2022-12-03T09:48:56.838Z,8.57
2022-12-03T09:51:28.090Z,7.38
2022-12-03T09:53:54.461Z,8.15
2022-12-03T09:56:23.301Z,7.45
2022-12-03T09:58:50.198Z,9.50
2022-12-03T10:01:17.667Z,9.20
2022-12-03T10:03:48.215Z,7.88
2022-12-03T10:06:18.945Z,9.18
2022-12-03T10:08:48.454Z,8.73
2022-12-03T10:11:17.257Z,8.02
2022-12-03T10:13:44.664Z,9.82
2022-12-03T10:16:18.131Z,8.80
2022-12-03T10:18:51.301Z,9.07
2022-12-03T10:21:25.833Z,9.90
2022-12-03T10:24:21.984Z,9.07
2022-12-03T10:26:52.201Z,8.20
2022-12-03T10:29:34.652Z,10.32
2022-12-03T10:32:10.184Z,9.25
2022-12-03T10:34:39.444Z,8.88
2022-12-03T10:37:11.696Z,9.18
2022-12-03T10:40:04.575Z,11.27
2022-12-03T10:42:33.560Z,10.68
2022-12-03T10:45:15.357Z,12.52
2022-12-03T10:47:43.454Z,11.45
2022-12-03T10:50:18.744Z,10.82
2022-12-03T10:52:46.428Z,9.23
2022-12-03T10:55:13.703Z,11.52
2022-12-03T10:57:45.299Z,10.68
2022-12-03T11:00:22.684Z,10.02
2022-12-03T11:02:56.100Z,11.30
2022-12-03T11:05:27.243Z,11.02
2022-12-03T11:07:54.331Z,11.52
2022-12-03T11:10:21.121Z,11.73
2022-12-03T11:13:25.312Z,10.50
2022-12-03T11:15:52.915Z,10.93
2022-12-03T11:18:43.192Z,10.10
2022-12-03T11:21:12.407Z,10.82
2022-12-03T11:23:45.168Z,10.27
2022-12-03T11:26:37.331Z,11.35
2022-12-03T11:29:04.915Z,10.60
2022-12-03T11:31:40.769Z,12.20
2022-12-03T11:34:22.532Z,11.68
2022-12-03T11:37:11.103Z,11.65
2022-12-03T11:39:49.588Z,11.52
2022-12-03T11:42:27.718Z,12.27
2022-12-03T11:45:06.244Z,11.10
2022-12-03T11:47:40.824Z,11.13
2022-12-03T11:50:37.669Z,12.60
2022-12-03T11:53:17.443Z,11.50
2022-12-03T11:55:48.666Z,12.98
2022-12-03T11:58:24.510Z,12.18
2022-12-03T12:00:56.711Z,12.65
2022-12-03T12:03:44.559Z,12.60
2022-12-03T12:06:18.895Z,11.77
2022-12-03T12:08:51.324Z,12.30
2022-12-03T12:11:19.918Z,13.05
2022-12-03T12:14:09.856Z,13.00
2022-12-03T12:16:41.139Z,12.32
2022-12-03T12:19:32.580Z,13.35
2022-12-03T12:22:27.452Z,12.88
2022-12-03T12:24:54.807Z,13.23
2022-12-03T12:27:39.170Z,11.85
2022-12-03T12:30:28.153Z,13.70
2022-12-03T12:33:23.230Z,11.20
2022-12-03T12:35:51.086Z,12.32
2022-12-03T12:38:19.847Z,14.15
2022-12-03T12:40:49.973Z,13.93
2022-12-03T12:43:26.741Z,13.05
2022-12-03T12:45:57.081Z,13.30
2022-12-03T12:48:24.838Z,12.63
2022-12-03T12:51:08.910Z,11.93
2022-12-03T12:53:37.097Z,13.50
2022-12-03T12:56:31.992Z,12.93
2022-12-03T12:59:14.135Z,13.70
2022-12-03T13:01:41.974Z,13.63
2022-12-03T13:04:14.466Z,12.40
2022-12-03T13:06:41.774Z,12.93
2022-12-03T13:09:17.678Z,13.90
2022-12-03T13:11:46.619Z,13.93
2022-12-03T13:14:19.403Z,13.00
2022-12-03T13:16:47.358Z,13.68
2022-12-03T13:19:46.091Z,12.68
2022-12-03T13:22:20.589Z,13.07
2022-12-03T13:24:50.789Z,13.30
2022-12-03T13:27:17.123Z,13.05
2022-12-03T13:29:50.715Z,13.05
2022-12-03T13:32:20.511Z,13.25
2022-12-03T13:34:50.319Z,12.25
2022-12-03T13:37:22.184Z,12.60
2022-12-03T13:39:51.756Z,13.00
2022-12-03T13:42:45.071Z,12.50
2022-12-03T13:45:14.122Z,12.13
2022-12-03T13:47:43.282Z,12.60
2022-12-03T13:50:21.556Z,12.90
2022-12-03T13:52:48.355Z,12.20
2022-12-03T13:55:28.581Z,12.00
2022-12-03T13:57:55.990Z,12.55
2022-12-03T14:00:22.896Z,10.48
2022-12-03T14:02:49.420Z,12.35
2022-12-03T14:05:15.923Z,12.15
2022-12-03T14:07:42.575Z,12.68
2022-12-03T14:10:11.311Z,12.68
2022-12-03T14:12:37.702Z,11.93
2022-12-03T14:15:05.610Z,11.98
2022-12-03T14:17:32.345Z,11.38
2022-12-03T14:20:01.265Z,10.95
2022-12-03T14:22:28.300Z,11.73
2022-12-03T14:24:54.704Z,11.13
2022-12-03T14:27:22.057Z,11.82
2022-12-03T14:29:48.492Z,11.38
2022-12-03T14:32:15.201Z,12.50
2022-12-03T14:34:41.645Z,12.30
2022-12-03T14:37:08.150Z,11.73
2022-12-03T14:39:34.546Z,11.02
2022-12-03T14:42:13.171Z,11.63
2022-12-03T14:44:43.775Z,10.80
2022-12-03T14:47:10.913Z,12.18
2022-12-03T14:49:37.719Z,10.75
2022-12-03T14:52:04.392Z,11.93
2022-12-03T14:54:31.087Z,10.20
2022-12-03T14:56:57.621Z,9.52
2022-12-03T14:59:27.612Z,11.48
2022-12-03T15:01:54.590Z,11.50
2022-12-03T15:04:21.063Z,10.55
2022-12-03T15:06:47.499Z,9.88
2022-12-03T15:09:13.918Z,10.68
2022-12-03T15:11:45.957Z,10.50
2022-12-03T15:14:12.853Z,11.00
2022-12-03T15:16:39.528Z,10.40
2022-12-03T15:19:06.100Z,9.93
2022-12-03T15:21:34.800Z,9.60
2022-12-03T15:24:02.665Z,9.45
2022-12-03T15:26:29.713Z,10.63
2022-12-03T15:28:56.414Z,9.77
2022-12-03T15:31:22.834Z,10.80
2022-12-03T15:33:49.362Z,9.32
2022-12-03T15:36:15.732Z,10.30
2022-12-03T15:38:42.265Z,9.95
2022-12-03T15:41:21.248Z,9.75
2022-12-03T15:43:52.288Z,9.40
2022-12-03T15:46:20.041Z,10.25
2022-12-03T15:48:47.743Z,9.93
2022-12-03T15:51:14.655Z,10.13
2022-12-03T15:53:41.528Z,9.32
2022-12-03T15:56:08.411Z,10.30
2022-12-03T15:58:34.910Z,9.50
2022-12-03T16:01:01.454Z,9.43
2022-12-03T16:03:28.119Z,10.40
2022-12-03T16:05:54.665Z,10.25
2022-12-03T16:08:21.316Z,11.18
2022-12-03T16:10:47.891Z,10.95
2022-12-03T16:13:14.397Z,29.13
2022-12-03T16:15:40.897Z,13.18
2022-12-03T16:18:07.450Z,83.75
2022-12-03T16:20:33.906Z,95.25
2022-12-03T16:23:00.373Z,37.17
2022-12-03T16:25:26.850Z,11.75
2022-12-03T16:27:53.369Z,13.07
2022-12-03T16:30:19.843Z,12.00
2022-12-03T16:32:47.432Z,15.02
2022-12-03T16:35:13.840Z,12.68
2022-12-03T16:37:40.313Z,19.77
2022-12-03T16:40:07.393Z,13.63
2022-12-03T16:42:34.022Z,14.65
2022-12-03T16:45:03.079Z,31.63
2022-12-03T16:47:33.891Z,20.50
2022-12-03T16:50:04.733Z,24.00
2022-12-03T16:52:31.139Z,17.35
2022-12-03T16:54:57.679Z,9.60
2022-12-03T16:57:27.586Z,8.30
2022-12-03T16:59:56.872Z,11.15
2022-12-03T17:02:23.509Z,9.40
2022-12-03T17:04:50.209Z,8.18
2022-12-03T17:07:16.673Z,8.88
2022-12-03T17:09:43.339Z,9.20
2022-12-03T17:12:09.687Z,8.88
2022-12-03T17:14:36.278Z,8.25
2022-12-03T17:17:03.635Z,8.90
2022-12-03T17:19:30.111Z,8.57
2022-12-03T17:21:56.527Z,7.85
2022-12-03T17:24:23.122Z,8.70
2022-12-03T17:26:49.497Z,8.35
2022-12-03T17:29:17.160Z,8.98
2022-12-03T17:31:43.623Z,8.93
2022-12-03T17:34:10.482Z,8.50
2022-12-03T17:36:36.842Z,8.65
2022-12-03T17:39:03.610Z,9.68
2022-12-03T17:41:29.986Z,8.60
2022-12-03T17:43:56.511Z,7.47
2022-12-03T17:46:22.982Z,7.78
2022-12-03T17:48:49.676Z,9.13
2022-12-03T17:51:16.377Z,8.85
2022-12-03T17:53:42.758Z,8.73
2022-12-03T17:56:09.581Z,8.88
2022-12-03T17:58:35.970Z,8.38
2022-12-03T18:01:03.425Z,8.15
2022-12-03T18:03:30.886Z,7.80
2022-12-03T18:05:57.624Z,8.07
2022-12-03T18:08:24.055Z,9.13
2022-12-03T18:10:50.516Z,9.27
2022-12-03T18:13:16.979Z,8.38
2022-12-03T18:15:43.693Z,9.15
2022-12-03T18:18:10.431Z,8.77
2022-12-03T18:20:37.354Z,8.32
2022-12-03T18:23:03.851Z,8.68
2022-12-03T18:25:31.515Z,10.45
2022-12-03T18:27:58.091Z,8.20
2022-12-03T18:30:24.647Z,9.13
2022-12-03T18:32:51.030Z,8.52
2022-12-03T18:35:18.023Z,9.00
2022-12-03T18:37:44.850Z,8.88
2022-12-03T18:40:23.815Z,8.57
2022-12-03T18:42:50.301Z,9.05
2022-12-03T18:45:17.025Z,10.05
2022-12-03T18:47:43.626Z,28.13
2022-12-03T18:50:11.594Z,11.27
2022-12-03T18:52:38.926Z,9.48
2022-12-03T18:55:06.574Z,11.20
2022-12-03T18:57:33.226Z,18.52
2022-12-03T18:59:59.642Z,65.78
2022-12-03T19:02:54.241Z,45.65
2022-12-03T19:05:12.740Z,47.13
2022-12-03T19:07:39.451Z,35.20
2022-12-03T19:10:06.644Z,21.60
2022-12-03T19:12:33.588Z,38.10
2022-12-03T19:15:00.420Z,12.00
2022-12-03T19:17:27.509Z,32.92
2022-12-03T19:19:54.834Z,13.23
2022-12-03T19:22:21.879Z,11.80
2022-12-03T19:24:48.428Z,12.75
2022-12-03T19:27:15.178Z,16.45
2022-12-03T19:29:41.800Z,18.50
2022-12-03T19:32:08.840Z,22.67
2022-12-03T19:34:35.289Z,22.65
2022-12-03T19:37:01.770Z,16.23
2022-12-03T19:39:28.146Z,97.28
2022-12-03T19:41:54.578Z,64.53
2022-12-03T19:44:21.000Z,17.63
2022-12-03T19:46:49.591Z,24.83
2022-12-03T19:49:18.378Z,78.20
2022-12-03T19:51:44.820Z,27.67
2022-12-03T19:54:12.035Z,24.70
2022-12-03T19:56:38.632Z,32.90
2022-12-03T19:59:05.312Z,26.02
2022-12-03T20:01:34.393Z,20.38
2022-12-03T20:04:02.509Z,13.88
2022-12-03T20:06:31.853Z,26.90
2022-12-03T20:09:00.540Z,20.88
2022-12-03T20:11:29.442Z,16.02
2022-12-03T20:13:58.161Z,13.07
2022-12-03T20:16:27.459Z,13.82
2022-12-03T20:18:59.107Z,12.52
2022-12-03T20:21:26.906Z,13.02
2022-12-03T20:23:53.415Z,13.10
2022-12-03T20:26:22.530Z,12.70
2022-12-03T20:28:49.860Z,10.63
2022-12-03T20:31:18.829Z,11.63
2022-12-03T20:33:48.343Z,11.90
2022-12-03T20:36:16.640Z,11.88
2022-12-03T20:38:43.601Z,11.93
2022-12-03T20:41:13.952Z,11.30
2022-12-03T20:43:40.500Z,11.05
2022-12-03T20:46:08.058Z,12.75
2022-12-03T20:48:35.595Z,12.75
2022-12-03T20:51:07.579Z,11.27
2022-12-03T20:53:35.242Z,11.73
2022-12-03T20:56:02.587Z,10.07
2022-12-03T20:58:30.773Z,12.13
2022-12-03T21:01:15.398Z,10.90
2022-12-03T21:03:42.527Z,12.30
2022-12-03T21:06:10.193Z,11.40
2022-12-03T21:08:41.491Z,11.80
2022-12-03T21:11:11.923Z,12.02
2022-12-03T21:13:41.216Z,12.43
2022-12-03T21:16:09.528Z,12.57
2022-12-03T21:18:36.259Z,11.98
2022-12-03T21:21:04.423Z,13.05
2022-12-03T21:23:32.468Z,11.73
2022-12-03T21:26:16.862Z,11.05
2022-12-03T21:28:45.580Z,11.18
2022-12-03T21:31:14.827Z,11.98
2022-12-03T21:33:41.319Z,12.77
2022-12-03T21:36:08.648Z,13.15
2022-12-03T21:38:36.441Z,12.80
2022-12-03T21:41:04.970Z,12.40
2022-12-03T21:43:32.487Z,12.55
2022-12-03T21:45:59.408Z,11.90
2022-12-03T21:48:25.902Z,11.80
2022-12-03T21:51:10.140Z,13.52
2022-12-03T21:53:43.338Z,12.18
2022-12-03T21:56:16.199Z,12.52
2022-12-03T21:58:43.893Z,12.10
2022-12-03T22:01:16.365Z,12.85
2022-12-03T22:03:43.472Z,12.05
2022-12-03T22:06:10.731Z,12.43
2022-12-03T22:08:37.695Z,12.35
2022-12-03T22:11:06.196Z,11.73
2022-12-03T22:13:32.832Z,12.30
2022-12-03T22:15:59.280Z,12.20
2022-12-03T22:18:25.735Z,13.18
2022-12-03T22:20:52.149Z,12.50
2022-12-03T22:23:18.633Z,13.52
2022-12-03T22:25:44.999Z,12.52
2022-12-03T22:28:11.598Z,12.55
2022-12-03T22:30:39.856Z,12.57
2022-12-03T22:33:06.303Z,12.23
2022-12-03T22:35:32.809Z,11.77
2022-12-03T22:37:59.261Z,12.23
2022-12-03T22:40:25.696Z,12.57
2022-12-03T22:42:52.079Z,12.48
2022-12-03T22:45:18.555Z,11.88
2022-12-03T22:47:45.064Z,12.55
2022-12-03T22:50:12.560Z,12.50
2022-12-03T22:52:38.948Z,12.98
2022-12-03T22:55:05.659Z,12.18
2022-12-03T22:57:32.390Z,11.75
2022-12-03T22:59:58.877Z,11.60
2022-12-03T23:02:25.506Z,10.98
2022-12-03T23:04:55.257Z,12.32
2022-12-03T23:07:21.779Z,10.90
2022-12-03T23:09:48.563Z,11.85
2022-12-03T23:12:15.322Z,11.35
2022-12-03T23:14:41.851Z,11.40
2022-12-03T23:17:09.005Z,11.90
2022-12-03T23:19:35.758Z,11.25
2022-12-03T23:22:02.491Z,11.00
2022-12-03T23:24:29.189Z,10.38
2022-12-03T23:26:56.481Z,10.80
2022-12-03T23:29:22.949Z,10.60
2022-12-03T23:31:49.579Z,10.70
2022-12-03T23:34:16.096Z,11.27
2022-12-03T23:36:42.695Z,11.85
2022-12-03T23:39:09.206Z,11.60
2022-12-03T23:41:36.085Z,11.18
2022-12-03T23:44:02.439Z,12.07
2022-12-03T23:46:29.137Z,10.85
2022-12-03T23:48:58.415Z,11.68
2022-12-03T23:51:25.601Z,12.38
2022-12-03T23:53:53.091Z,11.05
2022-12-03T23:56:22.572Z,11.43
2022-12-03T23:58:51.226Z,11.40
